Time;durP1;ratioP1;P1;durP2;ratioP2;P2;SDS_P1;SDS_P2;PMS_P1;PMS_P2;Temp;Humidity;BMP_temperature;BMP_pressure;BME280_temperature;BME280_humidity;BME280_pressure;Samples;Min_cycle;Max_cycle;Signal;HPM_P1;HPM_P2
2023/01/16 00:01:57;;;;;;;15.60;7.18;;;3.90;99.90;;;;;;4974876;28;20046;-64
2023/01/16 00:04:25;;;;;;;15.82;7.38;;;3.90;99.90;;;;;;4987886;28;20061;-62
2023/01/16 00:06:53;;;;;;;15.20;7.88;;;3.90;99.90;;;;;;4993140;28;20047;-60
2023/01/16 00:09:21;;;;;;;17.50;6.97;;;3.80;99.90;;;;;;4981731;28;20402;-60
2023/01/16 00:11:49;;;;;;;16.70;6.65;;;3.90;99.90;;;;;;4992231;28;20469;-60
2023/01/16 00:14:17;;;;;;;14.15;6.40;;;3.80;99.90;;;;;;4990884;28;20038;-60
2023/01/16 00:16:44;;;;;;;12.52;6.15;;;3.80;99.90;;;;;;5021439;28;20509;-60
2023/01/16 00:19:12;;;;;;;13.63;6.15;;;3.80;99.90;;;;;;4992214;28;20046;-61
2023/01/16 00:21:40;;;;;;;9.95;6.50;;;3.80;99.90;;;;;;4992775;28;20054;-65
2023/01/16 00:24:08;;;;;;;17.08;6.32;;;3.80;99.90;;;;;;4992904;28;20057;-60
2023/01/16 00:26:35;;;;;;;14.45;6.53;;;3.80;99.90;;;;;;4992940;28;20043;-61
2023/01/16 00:29:04;;;;;;;12.70;6.97;;;3.80;99.90;;;;;;5007785;28;20053;-62
2023/01/16 00:31:31;;;;;;;10.70;5.63;;;3.70;99.90;;;;;;4992904;28;20555;-61
2023/01/16 00:33:59;;;;;;;11.52;5.68;;;3.70;99.90;;;;;;4992099;28;20042;-64
2023/01/16 00:36:27;;;;;;;12.07;5.00;;;3.70;99.90;;;;;;4992841;28;20042;-65
2023/01/16 00:38:56;;;;;;;12.32;5.97;;;3.60;99.90;;;;;;5002739;28;20049;-64
2023/01/16 00:41:23;;;;;;;9.97;5.40;;;3.60;99.90;;;;;;5022435;28;20043;-62
2023/01/16 00:43:51;;;;;;;6.32;4.13;;;3.50;99.90;;;;;;4992327;28;20046;-60
2023/01/16 00:46:19;;;;;;;10.20;4.93;;;3.50;99.90;;;;;;4991937;28;20052;-60
2023/01/16 00:48:47;;;;;;;10.57;5.22;;;3.40;99.90;;;;;;4990411;28;20042;-60
2023/01/16 00:51:14;;;;;;;8.32;4.68;;;3.40;99.90;;;;;;4992261;28;20065;-60
2023/01/16 00:53:42;;;;;;;7.15;4.35;;;3.40;99.90;;;;;;4992164;28;20046;-59
2023/01/16 00:56:10;;;;;;;7.45;4.78;;;3.30;99.90;;;;;;5003810;28;20042;-59
2023/01/16 00:58:37;;;;;;;10.25;4.63;;;3.20;99.90;;;;;;4991360;28;20038;-64
2023/01/16 01:01:06;;;;;;;9.07;4.93;;;3.20;99.90;;;;;;4990771;28;20518;-64
2023/01/16 01:03:33;;;;;;;11.80;5.60;;;3.20;99.90;;;;;;4987591;28;20061;-60
2023/01/16 01:06:06;;;;;;;8.77;5.05;;;3.20;99.90;;;;;;4998132;28;20059;-60
2023/01/16 01:08:34;;;;;;;9.95;5.22;;;3.20;99.90;;;;;;4999424;28;20053;-59
2023/01/16 01:11:10;;;;;;;12.93;5.70;;;3.20;99.90;;;;;;5002299;28;20038;-60
2023/01/16 01:13:38;;;;;;;11.52;6.25;;;3.20;99.90;;;;;;4991687;28;20042;-60
2023/01/16 01:16:07;;;;;;;10.00;5.00;;;3.30;99.90;;;;;;4991151;28;20057;-62
2023/01/16 01:18:35;;;;;;;14.07;5.75;;;3.30;99.90;;;;;;4990820;28;20066;-60
2023/01/16 01:21:04;;;;;;;10.80;4.90;;;3.30;99.90;;;;;;4992019;28;20061;-60
2023/01/16 01:23:32;;;;;;;11.88;5.18;;;3.30;99.90;;;;;;4990181;28;20038;-61
2023/01/16 01:26:09;;;;;;;8.38;5.00;;;3.30;99.90;;;;;;4978384;28;20042;-62
2023/01/16 01:28:38;;;;;;;9.70;5.10;;;3.40;99.90;;;;;;4991291;28;20050;-60
2023/01/16 01:31:07;;;;;;;11.35;5.35;;;3.40;99.90;;;;;;4991919;28;20387;-60
2023/01/16 01:33:35;;;;;;;;;;;3.40;99.90;;;;;;4992079;28;20046;-59
2023/01/16 01:36:04;;;;;;;7.93;4.43;;;3.50;99.90;;;;;;4997164;28;19922;-61
2023/01/16 01:38:32;;;;;;;8.57;4.90;;;3.40;99.90;;;;;;4991508;28;20050;-59
2023/01/16 01:40:59;;;;;;;11.55;5.65;;;3.50;99.90;;;;;;5003917;28;20054;-61
2023/01/16 01:43:47;;;;;;;8.82;4.78;;;3.50;99.90;;;;;;4990055;28;20046;-59
2023/01/16 01:46:25;;;;;;;7.93;5.13;;;3.50;99.90;;;;;;4991667;28;20046;-58
2023/01/16 01:48:59;;;;;;;11.02;4.90;;;3.60;99.90;;;;;;4989197;28;20074;-58
2023/01/16 01:51:34;;;;;;;9.15;4.95;;;3.60;99.90;;;;;;5022662;28;20050;-59
2023/01/16 01:54:10;;;;;;;8.82;4.90;;;3.60;99.90;;;;;;4990130;28;20510;-58
2023/01/16 01:56:58;;;;;;;9.10;4.85;;;3.50;99.90;;;;;;4989394;28;20065;-59
2023/01/16 01:59:32;;;;;;;8.38;4.78;;;3.60;99.90;;;;;;4989768;28;20046;-65
2023/01/16 02:02:03;;;;;;;11.55;5.68;;;3.60;99.90;;;;;;4991469;28;20054;-65
2023/01/16 02:04:36;;;;;;;8.35;5.25;;;3.60;99.90;;;;;;4992265;28;20042;-61
2023/01/16 02:07:07;;;;;;;11.77;5.10;;;3.60;99.90;;;;;;5009088;28;20072;-65
2023/01/16 02:09:36;;;;;;;10.65;5.55;;;3.60;99.90;;;;;;5017845;28;20046;-64
2023/01/16 02:12:09;;;;;;;9.20;5.47;;;4.30;99.90;;;;;;4988953;28;20058;-60
2023/01/16 02:14:42;;;;;;;8.82;4.82;;;3.60;99.90;;;;;;4986499;28;20653;-64
2023/01/16 02:20:10;;;;;;;8.55;3.78;;;3.60;99.90;;;;;;4990635;28;20053;-64
2023/01/16 02:22:59;;;;;;;9.68;3.83;;;3.70;99.90;;;;;;5005800;28;20034;-62
2023/01/16 02:26:05;;;;;;;6.70;3.92;;;3.70;99.90;;;;;;4985351;28;20055;-65
2023/01/16 02:28:46;;;;;;;8.63;4.43;;;3.70;99.90;;;;;;4985715;28;20047;-65
2023/01/16 02:31:35;;;;;;;4.25;2.33;;;3.70;99.90;;;;;;4986923;28;20038;-65
2023/01/16 02:34:21;;;;;;;4.63;2.33;;;3.70;99.90;;;;;;4992454;28;20042;-58
2023/01/16 02:37:17;;;;;;;4.82;2.05;;;3.70;99.90;;;;;;5007067;28;20057;-59
2023/01/16 02:39:50;;;;;;;3.03;1.98;;;3.70;99.90;;;;;;4991327;28;20042;-60
2023/01/16 02:42:33;;;;;;;2.80;2.10;;;3.70;99.90;;;;;;4992040;28;20529;-64
2023/01/16 02:45:24;;;;;;;4.70;2.20;;;3.70;99.90;;;;;;4992257;28;20057;-64
2023/01/16 02:48:01;;;;;;;5.68;2.80;;;3.40;99.90;;;;;;4989817;28;20054;-66
2023/01/16 02:50:45;;;;;;;3.70;2.58;;;3.70;99.90;;;;;;4991940;28;20482;-67
2023/01/16 02:53:41;;;;;;;4.63;2.78;;;3.70;99.90;;;;;;4990797;28;20043;-59
2023/01/16 02:56:24;;;;;;;4.38;2.50;;;3.70;99.90;;;;;;4992119;28;20109;-65
2023/01/16 02:58:52;;;;;;;4.65;2.53;;;3.70;99.90;;;;;;4990586;28;20057;-60
2023/01/16 03:01:20;;;;;;;4.65;3.03;;;3.70;99.90;;;;;;4988959;28;20560;-65
2023/01/16 03:04:05;;;;;;;6.57;4.15;;;3.70;99.90;;;;;;4990317;28;20494;-63
2023/01/16 03:07:05;;;;;;;5.13;3.45;;;3.70;99.90;;;;;;4995099;28;20042;-60
2023/01/16 03:09:42;;;;;;;6.30;4.30;;;3.70;99.90;;;;;;4990027;28;20375;-65
2023/01/16 03:12:31;;;;;;;9.63;5.03;;;3.70;99.90;;;;;;4989194;28;20047;-64
2023/01/16 03:15:55;;;;;;;9.18;5.07;;;3.70;99.90;;;;;;4970789;28;20054;-59
2023/01/16 03:18:47;;;;;;;16.02;7.50;;;3.70;99.90;;;;;;4986963;28;20069;-62
2023/01/16 03:21:42;;;;;;;15.48;8.55;;;3.70;99.90;;;;;;4971952;28;20050;-65
2023/01/16 03:24:41;;;;;;;13.90;8.25;;;3.70;99.90;;;;;;4986897;28;20060;-65
2023/01/16 03:27:25;;;;;;;15.52;8.75;;;3.70;99.90;;;;;;4991892;28;20380;-65
2023/01/16 03:30:13;;;;;;;14.52;8.57;;;3.60;99.90;;;;;;4991791;28;20057;-59
2023/01/16 03:32:56;;;;;;;20.30;8.85;;;3.60;99.90;;;;;;4988739;28;20046;-60
2023/01/16 03:35:33;;;;;;;14.23;8.48;;;3.60;99.90;;;;;;4998817;28;20046;-60
2023/01/16 03:38:06;;;;;;;11.90;6.82;;;3.60;99.90;;;;;;4996632;28;20058;-59
2023/01/16 03:40:39;;;;;;;12.68;6.80;;;3.60;99.90;;;;;;4990695;28;20046;-58
2023/01/16 03:43:15;;;;;;;10.30;6.20;;;3.60;99.90;;;;;;4984978;28;20042;-60
2023/01/16 03:45:48;;;;;;;9.73;5.93;;;3.60;99.90;;;;;;4990108;28;20061;-60
2023/01/16 03:48:29;;;;;;;11.50;5.57;;;3.60;99.90;;;;;;4992701;28;20058;-59
2023/01/16 03:51:00;;;;;;;10.93;6.95;;;3.60;99.90;;;;;;4995201;28;20053;-63
2023/01/16 03:53:39;;;;;;;13.48;6.97;;;3.60;99.90;;;;;;4994027;28;20055;-59
2023/01/16 03:56:31;;;;;;;9.38;6.63;;;3.60;99.90;;;;;;4995416;28;20053;-61
2023/01/16 03:58:59;;;;;;;7.47;5.28;;;3.60;99.90;;;;;;4974918;28;20034;-59
2023/01/16 04:01:43;;;;;;;8.63;5.47;;;3.70;99.90;;;;;;4994605;28;20058;-60
2023/01/16 04:04:27;;;;;;;9.38;5.40;;;3.60;99.90;;;;;;4995011;28;20042;-59
2023/01/16 04:07:04;;;;;;;12.38;6.68;;;3.70;99.90;;;;;;5014557;28;20042;-61
2023/01/16 04:09:50;;;;;;;11.80;6.18;;;3.60;99.90;;;;;;5014571;28;20133;-58
2023/01/16 04:12:21;;;;;;;10.57;6.18;;;3.60;99.90;;;;;;5015032;28;20500;-59
2023/01/16 04:14:56;;;;;;;9.48;5.85;;;3.60;99.90;;;;;;4990279;28;20038;-61
2023/01/16 04:17:25;;;;;;;10.15;5.63;;;3.60;99.90;;;;;;4995016;28;20050;-61
2023/01/16 04:19:53;;;;;;;15.23;6.95;;;3.60;99.90;;;;;;4994172;28;20046;-61
2023/01/16 04:22:22;;;;;;;13.23;6.35;;;3.50;99.90;;;;;;4993214;28;20628;-62
2023/01/16 04:24:51;;;;;;;;;;;3.60;99.90;;;;;;4975930;28;20053;-66
2023/01/16 04:27:19;;;;;;;12.82;6.97;;;3.60;99.90;;;;;;4975439;28;19928;-65
2023/01/16 04:29:47;;;;;;;11.48;7.07;;;3.50;99.90;;;;;;4975334;28;20098;-60
2023/01/16 04:32:16;;;;;;;14.25;7.75;;;3.60;99.90;;;;;;4989249;28;20042;-66
2023/01/16 04:34:43;;;;;;;17.83;8.73;;;3.60;99.90;;;;;;4996725;28;20426;-65
2023/01/16 04:37:16;;;;;;;15.07;8.23;;;3.60;99.90;;;;;;5009709;28;20034;-64
2023/01/16 04:39:44;;;;;;;14.07;8.52;;;3.50;99.90;;;;;;4994610;28;20050;-65
2023/01/16 04:42:11;;;;;;;14.15;8.60;;;3.50;99.90;;;;;;4994525;28;20050;-65
2023/01/16 04:44:39;;;;;;;16.15;7.95;;;3.50;99.90;;;;;;4994393;28;20050;-65
2023/01/16 04:47:06;;;;;;;17.90;8.55;;;3.40;99.90;;;;;;4994522;28;20414;-66
2023/01/16 04:49:34;;;;;;;15.25;7.57;;;3.40;99.90;;;;;;4994193;28;20518;-65
2023/01/16 04:52:02;;;;;;;16.13;7.65;;;3.40;99.90;;;;;;4991921;28;20390;-65
2023/01/16 04:54:30;;;;;;;13.93;8.13;;;3.40;99.90;;;;;;4993333;28;20046;-63
2023/01/16 04:56:58;;;;;;;18.95;8.85;;;3.40;99.90;;;;;;4994323;28;20046;-66
2023/01/16 04:59:25;;;;;;;15.75;7.97;;;3.40;99.90;;;;;;4990964;28;20050;-66
2023/01/16 05:01:53;;;;;;;19.92;8.25;;;3.30;99.90;;;;;;4994187;28;20426;-66
2023/01/16 05:04:21;;;;;;;23.25;9.85;;;3.40;99.90;;;;;;4993258;28;20046;-66
2023/01/16 05:06:49;;;;;;;22.33;10.07;;;3.40;99.90;;;;;;4993295;28;20054;-60
2023/01/16 05:09:16;;;;;;;19.83;8.98;;;3.40;99.90;;;;;;4993976;28;20508;-59
2023/01/16 05:11:44;;;;;;;20.40;9.82;;;3.40;99.90;;;;;;4993303;28;20410;-59
2023/01/16 05:14:12;;;;;;;17.13;9.77;;;3.30;99.90;;;;;;4993926;28;20047;-59
2023/01/16 05:16:42;;;;;;;20.50;10.30;;;3.30;99.90;;;;;;4993977;28;20042;-59
2023/01/16 05:19:10;;;;;;;18.48;10.20;;;3.30;99.90;;;;;;4993061;28;20510;-60
2023/01/16 05:21:38;;;;;;;20.10;9.90;;;3.30;99.90;;;;;;4992459;28;20046;-60
2023/01/16 05:24:06;;;;;;;21.77;9.95;;;3.30;99.90;;;;;;4992322;28;20054;-60
2023/01/16 05:26:34;;;;;;;21.65;10.13;;;3.30;99.90;;;;;;4993726;28;20595;-60
2023/01/16 05:29:02;;;;;;;25.58;12.40;;;3.40;99.90;;;;;;4992091;28;20046;-61
2023/01/16 05:31:29;;;;;;;23.73;11.15;;;3.40;99.90;;;;;;4992180;28;20061;-63
2023/01/16 05:33:57;;;;;;;26.67;11.88;;;3.40;99.90;;;;;;4988534;28;20050;-60
2023/01/16 05:36:25;;;;;;;21.50;10.88;;;3.40;99.90;;;;;;5009474;28;20631;-65
2023/01/16 05:38:54;;;;;;;23.13;10.70;;;3.40;99.90;;;;;;5009429;28;20054;-60
2023/01/16 05:41:21;;;;;;;23.90;11.97;;;3.40;99.90;;;;;;4993090;28;20387;-65
2023/01/16 05:43:49;;;;;;;22.38;11.52;;;3.40;99.90;;;;;;4992808;28;20050;-62
2023/01/16 05:46:17;;;;;;;25.25;12.50;;;3.40;99.90;;;;;;4993300;28;20057;-66
2023/01/16 05:48:45;;;;;;;26.70;12.63;;;3.40;99.90;;;;;;4986781;28;20050;-60
2023/01/16 05:51:12;;;;;;;23.77;11.98;;;3.50;99.90;;;;;;4989738;28;20046;-60
2023/01/16 05:53:40;;;;;;;26.02;12.38;;;3.40;99.90;;;;;;4988555;28;20467;-60
2023/01/16 05:56:09;;;;;;;26.25;12.23;;;3.40;99.90;;;;;;4989791;28;20047;-60
2023/01/16 05:58:37;;;;;;;25.75;12.02;;;3.40;99.90;;;;;;5000545;28;20048;-60
2023/01/16 06:01:05;;;;;;;28.70;12.82;;;3.40;99.90;;;;;;5005404;28;20047;-59
2023/01/16 06:03:38;;;;;;;24.33;12.85;;;3.40;99.90;;;;;;4984658;28;20573;-60
2023/01/16 06:06:09;;;;;;;25.55;11.95;;;3.40;99.90;;;;;;5009543;28;20053;-60
2023/01/16 06:08:37;;;;;;;21.92;11.27;;;3.40;99.90;;;;;;4987863;28;20050;-66
2023/01/16 06:11:04;;;;;;;27.70;13.25;;;3.40;99.90;;;;;;4987699;28;20046;-61
2023/01/16 06:13:32;;;;;;;27.63;12.70;;;3.40;99.90;;;;;;4995176;28;20046;-60
2023/01/16 06:16:00;;;;;;;29.02;14.57;;;3.40;99.90;;;;;;5007998;28;20045;-61
2023/01/16 06:18:28;;;;;;;29.30;14.32;;;3.40;99.90;;;;;;5013611;28;20054;-60
2023/01/16 06:20:55;;;;;;;27.73;14.85;;;3.40;99.90;;;;;;4990445;28;20054;-60
2023/01/16 06:23:24;;;;;;;34.17;14.85;;;3.40;99.90;;;;;;4993978;28;20058;-60
2023/01/16 06:25:52;;;;;;;31.88;15.75;;;3.50;99.90;;;;;;5007463;28;20405;-61
2023/01/16 06:28:19;;;;;;;27.63;15.60;;;3.50;99.90;;;;;;4990553;28;20046;-59
2023/01/16 06:30:51;;;;;;;32.03;15.20;;;3.40;99.90;;;;;;4988678;28;20486;-60
2023/01/16 06:33:19;;;;;;;31.48;15.75;;;3.40;99.90;;;;;;4992133;28;20627;-59
2023/01/16 06:35:48;;;;;;;29.25;15.55;;;3.40;99.90;;;;;;5001556;28;20505;-58
2023/01/16 06:38:16;;;;;;;31.60;15.65;;;3.50;99.90;;;;;;5000805;28;20061;-59
2023/01/16 06:40:44;;;;;;;36.05;19.42;;;3.50;99.90;;;;;;4990718;28;20058;-60
2023/01/16 06:43:12;;;;;;;41.30;17.63;;;3.40;99.90;;;;;;4994260;28;20046;-60
2023/01/16 06:45:40;;;;;;;37.20;17.45;;;3.40;99.90;;;;;;5007661;28;20057;-61
2023/01/16 06:48:08;;;;;;;32.13;17.42;;;3.40;99.90;;;;;;4990590;28;20521;-60
2023/01/16 06:50:35;;;;;;;38.40;18.02;;;3.40;99.90;;;;;;4985923;28;20514;-61
2023/01/16 06:53:03;;;;;;;37.22;17.80;;;3.40;99.90;;;;;;4986992;28;20046;-60
2023/01/16 06:55:30;;;;;;;37.65;18.00;;;3.40;99.90;;;;;;4989616;28;20057;-60
2023/01/16 06:57:58;;;;;;;44.10;19.65;;;3.40;99.90;;;;;;4990504;28;20494;-59
2023/01/16 07:00:26;;;;;;;44.53;19.05;;;3.40;99.90;;;;;;4989570;28;20414;-60
2023/01/16 07:02:56;;;;;;;42.25;20.27;;;3.40;99.90;;;;;;4982837;28;20077;-61
2023/01/16 07:05:25;;;;;;;39.88;19.38;;;3.40;99.90;;;;;;5001251;28;20045;-61
2023/01/16 07:07:53;;;;;;;51.47;22.90;;;3.30;99.90;;;;;;4989581;28;20050;-61
2023/01/16 07:10:22;;;;;;;56.90;21.02;;;3.40;99.90;;;;;;4986979;28;20058;-61
2023/01/16 07:12:54;;;;;;;45.40;19.45;;;3.30;99.90;;;;;;4988818;28;20054;-62
2023/01/16 07:24:06;;;;;;;41.92;16.20;;;3.30;99.90;;;;;;4983515;28;20084;-66
2023/01/16 07:26:39;;;;;;;42.20;18.02;;;3.30;99.90;;;;;;4994172;28;20071;-65
2023/01/16 07:29:07;;;;;;;39.72;14.25;;;3.30;99.90;;;;;;4994004;28;20049;-65
2023/01/16 07:31:35;;;;;;;31.55;13.90;;;3.30;99.90;;;;;;4993191;28;20053;-64
2023/01/16 07:34:03;;;;;;;35.35;12.60;;;3.20;99.90;;;;;;4993006;28;20053;-66
2023/01/16 07:36:30;;;;;;;30.50;12.18;;;3.20;99.90;;;;;;4993682;28;20053;-62
2023/01/16 07:38:58;;;;;;;28.70;12.73;;;3.20;99.90;;;;;;4993812;28;20402;-60
2023/01/16 07:41:26;;;;;;;27.63;10.32;;;3.10;99.90;;;;;;4983754;28;20050;-61
2023/01/16 07:43:54;;;;;;;23.75;11.18;;;3.10;99.90;;;;;;4993601;28;20494;-60
2023/01/16 07:46:21;;;;;;;26.98;10.73;;;3.10;99.90;;;;;;5008339;28;20050;-59
2023/01/16 07:48:51;;;;;;;21.17;9.57;;;3.10;99.90;;;;;;4998345;28;20046;-60
2023/01/16 07:51:19;;;;;;;23.88;9.23;;;3.00;99.90;;;;;;4995239;28;20042;-60
2023/01/16 07:53:46;;;;;;;25.52;8.32;;;3.00;99.90;;;;;;4992716;28;20046;-59
2023/01/16 07:56:14;;;;;;;21.90;8.40;;;3.00;99.90;;;;;;4993084;28;20054;-60
2023/01/16 07:58:42;;;;;;;15.60;7.38;;;3.00;99.90;;;;;;4992665;28;20054;-59
2023/01/16 08:01:10;;;;;;;15.48;6.47;;;3.00;99.90;;;;;;4992762;28;20046;-61
2023/01/16 08:03:39;;;;;;;13.02;7.43;;;3.00;99.90;;;;;;4988846;28;20046;-64
2023/01/16 08:06:07;;;;;;;15.50;7.57;;;2.90;99.90;;;;;;5005136;28;20042;-66
2023/01/16 08:08:35;;;;;;;13.07;6.70;;;2.90;99.90;;;;;;4992652;28;20510;-65
2023/01/16 08:11:35;;;;;;;12.82;6.68;;;2.90;99.90;;;;;;4992411;28;20554;-60
2023/01/16 08:13:51;;;;;;;15.88;5.75;;;2.80;99.90;;;;;;4992933;28;20046;-64
2023/01/16 08:16:18;;;;;;;14.30;6.85;;;2.80;99.90;;;;;;4992337;28;20046;-61
2023/01/16 08:18:48;;;;;;;14.60;7.88;;;2.80;99.90;;;;;;4991660;28;20046;-61
2023/01/16 08:21:17;;;;;;;13.57;7.68;;;2.80;99.90;;;;;;4992092;28;20430;-61
2023/01/16 08:23:45;;;;;;;14.23;6.50;;;2.80;99.90;;;;;;4991039;28;20046;-61
2023/01/16 08:26:13;;;;;;;13.55;6.82;;;2.70;99.90;;;;;;4991960;28;20051;-67
2023/01/16 08:28:41;;;;;;;11.25;6.15;;;2.70;99.90;;;;;;4992999;28;20046;-63
2023/01/16 08:31:15;;;;;;;12.38;6.38;;;2.70;99.90;;;;;;4992727;28;20061;-59
2023/01/16 08:33:44;;;;;;;14.43;6.45;;;2.70;99.90;;;;;;4988683;28;20852;-60
2023/01/16 08:36:16;;;;;;;14.77;6.00;;;2.70;99.90;;;;;;4984892;28;20046;-62
2023/01/16 08:38:44;;;;;;;12.90;6.35;;;2.60;99.90;;;;;;5000053;28;20050;-61
2023/01/16 08:52:33;;;;;;;17.17;7.07;;;2.60;99.90;;;;;;4988740;28;20054;-62
2023/01/16 08:55:01;;;;;;;15.87;7.97;;;2.60;99.90;;;;;;4990973;28;20054;-58
2023/01/16 08:57:29;;;;;;;15.98;6.63;;;2.60;99.90;;;;;;4990490;28;20315;-60
2023/01/16 08:59:57;;;;;;;11.70;6.18;;;2.60;99.90;;;;;;4986366;28;20406;-61
2023/01/16 09:02:26;;;;;;;17.00;7.45;;;2.60;99.90;;;;;;4992154;28;20042;-60
2023/01/16 09:04:54;;;;;;;;;;;2.60;99.90;;;;;;4993334;28;20042;-60
2023/01/16 09:07:23;;;;;;;16.00;6.43;;;2.70;99.90;;;;;;4991049;28;19922;-62
2023/01/16 09:09:51;;;;;;;10.02;5.55;;;2.70;99.90;;;;;;4987913;28;20046;-58
2023/01/16 09:15:06;;;;;;;11.70;6.63;;;2.80;99.90;;;;;;5008773;28;20050;-62
2023/01/16 09:17:33;;;;;;;14.98;7.25;;;2.80;99.90;;;;;;4991342;28;20068;-66
2023/01/16 09:20:02;;;;;;;16.70;8.13;;;2.80;99.90;;;;;;4988427;28;20042;-61
2023/01/16 09:22:29;;;;;;;15.27;7.28;;;2.90;99.90;;;;;;4985720;28;20046;-59
2023/01/16 09:24:57;;;;;;;10.60;6.38;;;2.90;99.90;;;;;;4987363;28;20061;-59
2023/01/16 09:27:25;;;;;;;12.20;5.82;;;2.90;99.90;;;;;;5005881;28;20494;-59
2023/01/16 09:29:52;;;;;;;15.35;6.25;;;2.90;99.90;;;;;;4992088;28;20046;-61
2023/01/16 09:32:20;;;;;;;10.65;5.95;;;2.90;99.90;;;;;;4991934;28;20039;-61
2023/01/16 09:34:48;;;;;;;15.18;6.18;;;2.90;99.90;;;;;;4985295;28;20046;-62
2023/01/16 09:37:16;;;;;;;14.55;6.03;;;3.00;99.90;;;;;;4989419;28;20053;-60
2023/01/16 09:39:44;;;;;;;11.73;6.28;;;2.90;99.90;;;;;;4988205;28;20050;-61
2023/01/16 09:45:21;;;;;;;15.45;5.18;;;2.90;99.90;;;;;;4988627;28;20043;-66
2023/01/16 09:47:53;;;;;;;8.85;5.53;;;2.90;99.90;;;;;;4990709;28;20042;-64
2023/01/16 09:50:30;;;;;;;10.73;5.18;;;2.90;99.90;;;;;;4991324;28;20050;-66
2023/01/16 09:58:42;;;;;;;9.70;3.58;;;2.90;99.90;;;;;;4992038;28;20050;-67
2023/01/16 10:01:23;;;;;;;6.50;3.88;;;3.00;99.90;;;;;;4999005;28;20043;-66
2023/01/16 10:03:57;;;;;;;4.70;2.65;;;3.10;99.90;;;;;;4989082;28;20049;-67
2023/01/16 10:06:44;;;;;;;5.88;2.92;;;3.10;99.90;;;;;;4985924;28;20061;-65
2023/01/16 10:09:46;;;;;;;3.72;1.90;;;3.10;99.90;;;;;;4987923;28;20049;-64
2023/01/16 10:12:14;;;;;;;4.18;1.90;;;3.10;99.90;;;;;;4987064;28;20042;-62
2023/01/16 10:15:14;;;;;;;4.65;2.40;;;3.10;99.90;;;;;;4987573;28;20046;-64
2023/01/16 10:17:56;;;;;;;6.45;2.00;;;3.10;99.90;;;;;;4975439;28;20050;-62
2023/01/16 10:20:27;;;;;;;4.55;1.20;;;3.10;99.90;;;;;;4989885;28;20046;-62
2023/01/16 10:23:37;;;;;;;2.90;1.25;;;3.10;99.90;;;;;;4990079;28;20231;-62
2023/01/16 10:26:10;;;;;;;1.83;1.40;;;3.10;99.90;;;;;;4988593;28;20046;-62
2023/01/16 10:28:57;;;;;;;2.00;1.50;;;3.10;99.90;;;;;;5002811;28;20422;-65
2023/01/16 10:31:34;;;;;;;1.67;1.20;;;3.10;99.90;;;;;;4989085;28;20058;-67
2023/01/16 10:34:20;;;;;;;7.05;1.65;;;3.10;99.90;;;;;;5013636;28;20493;-61
2023/01/16 10:36:52;;;;;;;1.27;1.10;;;3.10;99.90;;;;;;4988807;28;20406;-60
2023/01/16 10:39:21;;;;;;;11.20;3.88;;;3.10;99.90;;;;;;4993565;28;20085;-67
2023/01/16 10:50:27;;;;;;;3.22;2.20;;;3.20;99.90;;;;;;4978335;28;20065;-60
2023/01/16 10:53:05;;;;;;;6.43;3.13;;;3.30;99.90;;;;;;4989625;28;20058;-63
2023/01/16 10:55:35;;;;;;;6.50;3.38;;;3.20;99.90;;;;;;4986090;28;20061;-58
2023/01/16 10:58:15;;;;;;;2.03;1.63;;;3.20;99.90;;;;;;4989453;28;20414;-60
2023/01/16 11:00:43;;;;;;;1.45;1.23;;;3.20;99.90;;;;;;4986990;28;20061;-60
2023/01/16 11:03:16;;;;;;;1.10;1.00;;;3.20;99.90;;;;;;4989763;28;20046;-62
2023/01/16 11:05:44;;;;;;;1.88;0.95;;;3.10;99.90;;;;;;4988255;28;20053;-61
2023/01/16 11:08:15;;;;;;;1.10;0.90;;;3.10;99.90;;;;;;4990087;28;20062;-64
2023/01/16 11:10:50;;;;;;;1.90;0.82;;;3.10;99.90;;;;;;4988162;28;20050;-60
2023/01/16 11:19:20;;;;;;;1.38;0.80;;;3.00;99.90;;;;;;4989707;28;20491;-59
2023/01/16 11:22:00;;;;;;;1.25;0.80;;;3.00;99.90;;;;;;4988378;28;20057;-61
2023/01/16 11:24:34;;;;;;;2.15;0.50;;;3.00;99.90;;;;;;4988209;28;20050;-62
2023/01/16 11:27:07;;;;;;;3.42;1.02;;;3.00;99.90;;;;;;4990212;28;20053;-61
2023/01/16 11:29:38;;;;;;;0.45;0.45;;;2.90;99.90;;;;;;5020872;28;20049;-61
2023/01/16 11:32:13;;;;;;;0.55;0.50;;;2.90;99.90;;;;;;4988274;28;20134;-61
2023/01/16 11:34:47;;;;;;;0.90;0.52;;;2.90;99.90;;;;;;4988047;28;20049;-61
2023/01/16 11:37:16;;;;;;;1.30;0.55;;;2.90;99.90;;;;;;4978974;28;20058;-62
2023/01/16 11:39:50;;;;;;;0.70;0.50;;;2.90;99.90;;;;;;4989058;28;20045;-62
2023/01/16 11:48:22;;;;;;;1.10;0.60;;;3.00;99.90;;;;;;4988065;28;20047;-58
2023/01/16 11:50:56;;;;;;;0.80;0.77;;;3.20;99.90;;;;;;4980315;28;20043;-59
2023/01/16 11:53:30;;;;;;;1.23;0.60;;;3.30;99.90;;;;;;4988635;28;20039;-59
2023/01/16 11:56:21;;;;;;;1.52;0.50;;;3.30;99.90;;;;;;4984100;28;20058;-64
2023/01/16 11:59:07;;;;;;;1.83;0.50;;;3.40;99.90;;;;;;4987579;28;20050;-60
2023/01/16 12:04:40;;;;;;;1.95;0.45;;;3.40;99.90;;;;;;4983497;28;20061;-60
2023/01/16 12:07:19;;;;;;;0.82;0.43;;;3.40;99.90;;;;;;4989394;28;20057;-60
2023/01/16 12:10:27;;;;;;;1.40;0.40;;;3.30;99.90;;;;;;4999293;28;20057;-65
2023/01/16 12:16:00;;;;;;;1.15;0.60;;;5.80;99.90;;;;;;4988477;28;20061;-66
2023/01/16 12:18:43;;;;;;;0.90;0.50;;;3.30;99.90;;;;;;4990878;28;20047;-64
2023/01/16 12:21:52;;;;;;;1.45;0.30;;;3.30;99.90;;;;;;4988708;28;20054;-66
2023/01/16 12:24:34;;;;;;;0.22;0.22;;;3.40;99.90;;;;;;4980556;28;20529;-66
2023/01/16 12:27:46;;;;;;;0.52;0.40;;;3.30;99.90;;;;;;4992107;28;20050;-67
2023/01/16 12:30:19;;;;;;;1.20;0.40;;;3.30;99.90;;;;;;4981788;28;20055;-67
2023/01/16 12:32:55;;;;;;;0.35;0.35;;;3.30;99.90;;;;;;4992836;28;20046;-67
2023/01/16 12:35:30;;;;;;;0.52;0.20;;;3.30;99.90;;;;;;4990670;28;20403;-65
2023/01/16 12:38:10;;;;;;;1.10;0.30;;;3.40;99.90;;;;;;4985864;28;20061;-65
2023/01/16 12:40:50;;;;;;;1.00;0.38;;;3.80;99.90;;;;;;4989328;28;20054;-61
2023/01/16 12:43:32;;;;;;;1.05;0.43;;;4.10;99.90;;;;;;4992670;28;20073;-60
2023/01/16 12:46:15;;;;;;;2.45;0.80;;;4.40;99.90;;;;;;4973468;28;20047;-58
2023/01/16 12:49:16;;;;;;;1.88;0.55;;;4.90;99.90;;;;;;4988511;28;20050;-59
2023/01/16 12:52:22;;;;;;;2.08;0.60;;;5.70;99.90;;;;;;4989740;28;20065;-59
2023/01/16 12:55:32;;;;;;;0.80;0.43;;;6.40;99.90;;;;;;4990071;28;20051;-60
2023/01/16 12:58:19;;;;;;;0.40;0.13;;;7.30;99.90;;;;;;4977986;28;20055;-60
2023/01/16 13:01:11;;;;;;;0.88;0.20;;;7.40;99.90;;;;;;4992208;28;20050;-59
2023/01/16 13:03:48;;;;;;;1.13;0.20;;;7.50;99.90;;;;;;4991429;28;20038;-60
2023/01/16 13:06:23;;;;;;;0.75;0.40;;;7.70;99.90;;;;;;4991954;28;20423;-59
2023/01/16 13:09:00;;;;;;;0.63;0.20;;;7.90;99.90;;;;;;4997301;28;20049;-59
2023/01/16 13:14:34;;;;;;;1.92;0.20;;;8.20;99.90;;;;;;4985788;28;20126;-59
2023/01/16 13:17:12;;;;;;;0.32;0.20;;;8.40;99.90;;;;;;4990050;28;20487;-59
2023/01/16 13:19:59;;;;;;;1.35;0.20;;;8.50;99.90;;;;;;4988686;28;20046;-59
2023/01/16 13:22:34;;;;;;;1.48;0.20;;;8.70;99.90;;;;;;4991388;28;20062;-59
2023/01/16 13:25:17;;;;;;;3.88;0.50;;;8.80;96.80;;;;;;4991128;28;20051;-59
2023/01/16 13:27:51;;;;;;;3.60;0.68;;;8.90;96.50;;;;;;5004341;28;20494;-63
2023/01/16 13:30:19;;;;;;;0.68;0.25;;;9.00;96.10;;;;;;4974344;28;20059;-65
2023/01/16 13:33:12;;;;;;;0.40;0.10;;;9.10;94.10;;;;;;4991038;28;20053;-62
2023/01/16 13:36:09;;;;;;;0.10;0.08;;;9.30;91.80;;;;;;5001556;28;20073;-60
2023/01/16 13:38:40;;;;;;;0.20;0.20;;;9.30;89.90;;;;;;4982630;28;20046;-66
2023/01/16 13:41:29;;;;;;;0.82;0.45;;;9.40;89.80;;;;;;4990035;28;20107;-64
2023/01/16 13:47:09;;;;;;;1.55;0.32;;;9.50;91.10;;;;;;4984757;28;20544;-65
2023/01/16 13:49:38;;;;;;;3.72;0.70;;;9.70;89.70;;;;;;4985690;28;20414;-62
2023/01/16 13:52:19;;;;;;;7.55;0.50;;;9.90;88.30;;;;;;4990480;28;20038;-59
2023/01/16 13:54:49;;;;;;;2.47;0.88;;;9.90;80.00;;;;;;4989267;28;20050;-60
2023/01/16 13:57:20;;;;;;;1.10;0.10;;;9.90;80.60;;;;;;4989165;28;20061;-59
2023/01/16 13:59:50;;;;;;;2.30;0.50;;;9.80;82.10;;;;;;4986636;28;20510;-60
2023/01/16 14:02:25;;;;;;;0.75;0.40;;;9.70;79.60;;;;;;4986076;28;20046;-60
2023/01/16 14:05:14;;;;;;;1.27;0.40;;;9.70;80.90;;;;;;4988148;28;20061;-61
2023/01/16 14:10:59;;;;;;;2.05;0.20;;;9.80;79.50;;;;;;4986818;28;20038;-58
2023/01/16 14:13:38;;;;;;;1.25;0.40;;;9.70;77.40;;;;;;4989757;28;20058;-59
2023/01/16 14:16:30;;;;;;;6.10;1.53;;;9.70;77.10;;;;;;4989116;28;20050;-58
2023/01/16 14:19:15;;;;;;;1.95;0.57;;;8.30;72.20;;;;;;4989179;28;20398;-58
2023/01/16 14:24:00;;;;;;;1.45;0.20;;;7.90;74.10;;;;;;4989871;28;20050;-64
2023/01/16 14:24:45;;;;;;;0.30;0.20;;;6.90;75.00;;;;;;4990768;28;20057;-60
2023/01/16 14:27:16;;;;;;;0.98;0.50;;;6.00;78.30;;;;;;4989358;28;20046;-63
2023/01/16 14:29:51;;;;;;;2.95;1.00;;;5.40;83.30;;;;;;4970196;28;20046;-63
2023/01/16 14:32:23;;;;;;;4.45;0.90;;;5.60;90.50;;;;;;4972504;28;20066;-63
2023/01/16 14:35:03;;;;;;;4.28;1.10;;;6.00;89.30;;;;;;4992749;28;20046;-66
2023/01/16 14:37:36;;;;;;;1.85;0.63;;;6.60;89.50;;;;;;4988677;28;20050;-59